sensor_id;sensor_type;location;lat;lon;timestamp;P1;durP1;ratioP1;P2;durP2;ratioP2
10823;SDS011;39116;59.332;18.034;2023-11-21T00:01:11;4.50;;;3.80;;
10823;SDS011;39116;59.332;18.034;2023-11-21T00:03:32;6.07;;;4.10;;
10823;SDS011;39116;59.332;18.034;2023-11-21T00:05:54;3.90;;;3.47;;
10823;SDS011;39116;59.332;18.034;2023-11-21T00:08:16;4.03;;;3.63;;
10823;SDS011;39116;59.332;18.034;2023-11-21T00:10:39;6.03;;;4.13;;
10823;SDS011;39116;59.332;18.034;2023-11-21T00:13:01;5.37;;;3.87;;
10823;SDS011;39116;59.332;18.034;2023-11-21T00:15:23;4.00;;;3.50;;
10823;SDS011;39116;59.332;18.034;2023-11-21T00:17:46;3.87;;;3.47;;
10823;SDS011;39116;59.332;18.034;2023-11-21T00:20:08;3.77;;;3.47;;
10823;SDS011;39116;59.332;18.034;2023-11-21T00:22:33;5.33;;;3.60;;
10823;SDS011;39116;59.332;18.034;2023-11-21T00:24:54;4.50;;;4.10;;
10823;SDS011;39116;59.332;18.034;2023-11-21T00:27:17;4.23;;;3.83;;
10823;SDS011;39116;59.332;18.034;2023-11-21T00:29:39;5.23;;;4.00;;
10823;SDS011;39116;59.332;18.034;2023-11-21T00:32:00;4.20;;;3.73;;
10823;SDS011;39116;59.332;18.034;2023-11-21T00:34:22;4.53;;;4.03;;
10823;SDS011;39116;59.332;18.034;2023-11-21T00:36:44;4.43;;;3.90;;
10823;SDS011;39116;59.332;18.034;2023-11-21T00:39:05;5.73;;;4.07;;
10823;SDS011;39116;59.332;18.034;2023-11-21T00:41:27;6.90;;;5.00;;
10823;SDS011;39116;59.332;18.034;2023-11-21T00:43:50;4.73;;;4.23;;
10823;SDS011;39116;59.332;18.034;2023-11-21T00:46:12;5.07;;;4.33;;
10823;SDS011;39116;59.332;18.034;2023-11-21T00:48:34;5.73;;;4.10;;
10823;SDS011;39116;59.332;18.034;2023-11-21T00:50:56;4.97;;;3.97;;
10823;SDS011;39116;59.332;18.034;2023-11-21T00:53:18;4.40;;;3.80;;
10823;SDS011;39116;59.332;18.034;2023-11-21T00:55:39;4.70;;;3.83;;
10823;SDS011;39116;59.332;18.034;2023-11-21T00:58:01;5.23;;;4.40;;
10823;SDS011;39116;59.332;18.034;2023-11-21T01:00:26;4.57;;;3.97;;
10823;SDS011;39116;59.332;18.034;2023-11-21T01:02:48;5.20;;;4.33;;
10823;SDS011;39116;59.332;18.034;2023-11-21T01:05:10;5.50;;;4.03;;
10823;SDS011;39116;59.332;18.034;2023-11-21T01:07:31;4.97;;;4.13;;
10823;SDS011;39116;59.332;18.034;2023-11-21T01:09:53;4.63;;;4.13;;
10823;SDS011;39116;59.332;18.034;2023-11-21T01:12:16;4.93;;;4.00;;
10823;SDS011;39116;59.332;18.034;2023-11-21T01:14:39;5.10;;;3.70;;
10823;SDS011;39116;59.332;18.034;2023-11-21T01:17:02;4.80;;;3.97;;
10823;SDS011;39116;59.332;18.034;2023-11-21T01:19:25;4.43;;;3.77;;
10823;SDS011;39116;59.332;18.034;2023-11-21T01:21:46;5.37;;;3.97;;
10823;SDS011;39116;59.332;18.034;2023-11-21T01:24:08;4.87;;;3.87;;
10823;SDS011;39116;59.332;18.034;2023-11-21T01:26:30;4.90;;;3.93;;
10823;SDS011;39116;59.332;18.034;2023-11-21T01:28:51;4.63;;;4.00;;
10823;SDS011;39116;59.332;18.034;2023-11-21T01:31:13;5.00;;;3.97;;
10823;SDS011;39116;59.332;18.034;2023-11-21T01:33:36;5.03;;;3.73;;
10823;SDS011;39116;59.332;18.034;2023-11-21T01:35:58;5.23;;;4.20;;
10823;SDS011;39116;59.332;18.034;2023-11-21T01:38:20;4.27;;;3.87;;
10823;SDS011;39116;59.332;18.034;2023-11-21T01:40:42;4.63;;;3.90;;
10823;SDS011;39116;59.332;18.034;2023-11-21T01:43:04;5.33;;;4.20;;
10823;SDS011;39116;59.332;18.034;2023-11-21T01:45:26;4.70;;;4.10;;
10823;SDS011;39116;59.332;18.034;2023-11-21T01:47:49;4.87;;;4.37;;
10823;SDS011;39116;59.332;18.034;2023-11-21T01:50:14;5.57;;;4.67;;
10823;SDS011;39116;59.332;18.034;2023-11-21T01:52:37;4.67;;;4.00;;
10823;SDS011;39116;59.332;18.034;2023-11-21T01:54:59;4.97;;;4.20;;
10823;SDS011;39116;59.332;18.034;2023-11-21T01:57:21;4.87;;;4.37;;
10823;SDS011;39116;59.332;18.034;2023-11-21T01:59:43;4.50;;;4.10;;
10823;SDS011;39116;59.332;18.034;2023-11-21T02:02:06;5.70;;;4.37;;
10823;SDS011;39116;59.332;18.034;2023-11-21T02:04:28;4.67;;;4.03;;
10823;SDS011;39116;59.332;18.034;2023-11-21T02:06:51;5.43;;;4.47;;
10823;SDS011;39116;59.332;18.034;2023-11-21T02:09:13;4.90;;;4.20;;
10823;SDS011;39116;59.332;18.034;2023-11-21T02:11:35;5.10;;;4.10;;
10823;SDS011;39116;59.332;18.034;2023-11-21T02:13:59;4.60;;;3.83;;
10823;SDS011;39116;59.332;18.034;2023-11-21T02:16:21;4.73;;;3.97;;
10823;SDS011;39116;59.332;18.034;2023-11-21T02:18:42;5.17;;;4.40;;
10823;SDS011;39116;59.332;18.034;2023-11-21T02:21:04;4.63;;;4.13;;
10823;SDS011;39116;59.332;18.034;2023-11-21T02:23:27;4.60;;;4.00;;
10823;SDS011;39116;59.332;18.034;2023-11-21T02:25:49;5.13;;;4.33;;
10823;SDS011;39116;59.332;18.034;2023-11-21T02:28:10;4.30;;;3.90;;
10823;SDS011;39116;59.332;18.034;2023-11-21T02:30:35;4.63;;;4.23;;
10823;SDS011;39116;59.332;18.034;2023-11-21T02:32:59;4.43;;;4.03;;
10823;SDS011;39116;59.332;18.034;2023-11-21T02:35:20;4.70;;;4.20;;
10823;SDS011;39116;59.332;18.034;2023-11-21T02:37:42;4.23;;;3.70;;
10823;SDS011;39116;59.332;18.034;2023-11-21T02:40:06;4.20;;;3.80;;
10823;SDS011;39116;59.332;18.034;2023-11-21T02:42:29;4.77;;;4.37;;
10823;SDS011;39116;59.332;18.034;2023-11-21T02:44:51;4.37;;;3.97;;
10823;SDS011;39116;59.332;18.034;2023-11-21T02:47:13;5.03;;;4.47;;
10823;SDS011;39116;59.332;18.034;2023-11-21T02:49:35;4.43;;;4.03;;
10823;SDS011;39116;59.332;18.034;2023-11-21T02:51:57;5.10;;;4.43;;
10823;SDS011;39116;59.332;18.034;2023-11-21T02:54:18;4.77;;;4.27;;
10823;SDS011;39116;59.332;18.034;2023-11-21T02:56:43;4.20;;;3.77;;
10823;SDS011;39116;59.332;18.034;2023-11-21T02:59:06;4.80;;;4.13;;
10823;SDS011;39116;59.332;18.034;2023-11-21T03:01:27;4.07;;;3.67;;
10823;SDS011;39116;59.332;18.034;2023-11-21T03:03:49;5.13;;;4.10;;
10823;SDS011;39116;59.332;18.034;2023-11-21T03:06:11;4.30;;;3.90;;
10823;SDS011;39116;59.332;18.034;2023-11-21T03:08:33;4.57;;;4.17;;
10823;SDS011;39116;59.332;18.034;2023-11-21T03:10:54;4.37;;;3.67;;
10823;SDS011;39116;59.332;18.034;2023-11-21T03:13:17;4.97;;;4.20;;
10823;SDS011;39116;59.332;18.034;2023-11-21T03:15:39;4.87;;;4.23;;
10823;SDS011;39116;59.332;18.034;2023-11-21T03:18:02;4.97;;;3.70;;
10823;SDS011;39116;59.332;18.034;2023-11-21T03:20:25;4.13;;;3.60;;
10823;SDS011;39116;59.332;18.034;2023-11-21T03:22:47;3.90;;;3.50;;
10823;SDS011;39116;59.332;18.034;2023-11-21T03:25:08;4.00;;;3.60;;
10823;SDS011;39116;59.332;18.034;2023-11-21T03:27:31;4.20;;;3.80;;
10823;SDS011;39116;59.332;18.034;2023-11-21T03:29:54;6.17;;;4.60;;
10823;SDS011;39116;59.332;18.034;2023-11-21T03:32:16;5.10;;;4.00;;
10823;SDS011;39116;59.332;18.034;2023-11-21T03:34:52;5.07;;;4.33;;
10823;SDS011;39116;59.332;18.034;2023-11-21T03:37:14;4.60;;;3.87;;
10823;SDS011;39116;59.332;18.034;2023-11-21T03:39:36;5.47;;;4.50;;
10823;SDS011;39116;59.332;18.034;2023-11-21T03:41:58;4.57;;;4.17;;
10823;SDS011;39116;59.332;18.034;2023-11-21T03:44:19;4.80;;;4.30;;
10823;SDS011;39116;59.332;18.034;2023-11-21T03:46:43;4.63;;;4.13;;
10823;SDS011;39116;59.332;18.034;2023-11-21T03:49:05;4.33;;;3.93;;
10823;SDS011;39116;59.332;18.034;2023-11-21T03:51:27;5.67;;;4.90;;
10823;SDS011;39116;59.332;18.034;2023-11-21T03:53:49;5.30;;;4.70;;
10823;SDS011;39116;59.332;18.034;2023-11-21T03:56:11;5.27;;;4.43;;
10823;SDS011;39116;59.332;18.034;2023-11-21T03:58:32;8.13;;;4.90;;
10823;SDS011;39116;59.332;18.034;2023-11-21T04:00:54;5.20;;;4.70;;
10823;SDS011;39116;59.332;18.034;2023-11-21T04:03:17;5.47;;;4.60;;
10823;SDS011;39116;59.332;18.034;2023-11-21T04:05:39;6.97;;;4.80;;
10823;SDS011;39116;59.332;18.034;2023-11-21T04:08:01;5.23;;;4.40;;
10823;SDS011;39116;59.332;18.034;2023-11-21T04:10:23;5.10;;;4.60;;
10823;SDS011;39116;59.332;18.034;2023-11-21T04:12:45;5.47;;;4.40;;
10823;SDS011;39116;59.332;18.034;2023-11-21T04:15:07;5.57;;;4.60;;
10823;SDS011;39116;59.332;18.034;2023-11-21T04:17:29;6.10;;;4.73;;
10823;SDS011;39116;59.332;18.034;2023-11-21T04:19:52;5.97;;;4.60;;
10823;SDS011;39116;59.332;18.034;2023-11-21T04:22:14;4.77;;;4.27;;
10823;SDS011;39116;59.332;18.034;2023-11-21T04:24:36;4.97;;;4.23;;
10823;SDS011;39116;59.332;18.034;2023-11-21T04:26:58;4.53;;;4.13;;
10823;SDS011;39116;59.332;18.034;2023-11-21T04:29:19;5.57;;;3.93;;
10823;SDS011;39116;59.332;18.034;2023-11-21T04:31:41;5.50;;;3.90;;
10823;SDS011;39116;59.332;18.034;2023-11-21T04:34:03;4.93;;;4.03;;
10823;SDS011;39116;59.332;18.034;2023-11-21T04:36:26;5.17;;;3.90;;
10823;SDS011;39116;59.332;18.034;2023-11-21T04:38:50;4.87;;;3.83;;
10823;SDS011;39116;59.332;18.034;2023-11-21T04:41:12;4.00;;;3.60;;
10823;SDS011;39116;59.332;18.034;2023-11-21T04:43:34;4.30;;;3.60;;
10823;SDS011;39116;59.332;18.034;2023-11-21T04:45:55;3.90;;;3.57;;
10823;SDS011;39116;59.332;18.034;2023-11-21T04:48:17;4.07;;;3.67;;
10823;SDS011;39116;59.332;18.034;2023-11-21T04:50:39;4.17;;;3.73;;
10823;SDS011;39116;59.332;18.034;2023-11-21T04:53:02;4.07;;;3.67;;
10823;SDS011;39116;59.332;18.034;2023-11-21T04:55:25;3.60;;;3.10;;
10823;SDS011;39116;59.332;18.034;2023-11-21T04:57:48;3.23;;;2.93;;
10823;SDS011;39116;59.332;18.034;2023-11-21T05:00:10;3.80;;;3.20;;
10823;SDS011;39116;59.332;18.034;2023-11-21T05:02:32;3.90;;;3.20;;
10823;SDS011;39116;59.332;18.034;2023-11-21T05:04:55;3.47;;;2.87;;
10823;SDS011;39116;59.332;18.034;2023-11-21T05:07:17;3.53;;;3.20;;
10823;SDS011;39116;59.332;18.034;2023-11-21T05:09:42;3.73;;;3.30;;
10823;SDS011;39116;59.332;18.034;2023-11-21T05:12:06;3.77;;;3.27;;
10823;SDS011;39116;59.332;18.034;2023-11-21T05:14:28;3.70;;;3.40;;
10823;SDS011;39116;59.332;18.034;2023-11-21T05:16:50;3.97;;;3.27;;
10823;SDS011;39116;59.332;18.034;2023-11-21T05:19:12;3.83;;;3.50;;
10823;SDS011;39116;59.332;18.034;2023-11-21T05:21:33;4.27;;;3.13;;
10823;SDS011;39116;59.332;18.034;2023-11-21T05:23:56;4.30;;;3.27;;
10823;SDS011;39116;59.332;18.034;2023-11-21T05:26:19;3.63;;;3.20;;
10823;SDS011;39116;59.332;18.034;2023-11-21T05:28:41;3.70;;;3.40;;
10823;SDS011;39116;59.332;18.034;2023-11-21T05:31:02;4.37;;;3.20;;
10823;SDS011;39116;59.332;18.034;2023-11-21T05:33:24;3.70;;;3.30;;
10823;SDS011;39116;59.332;18.034;2023-11-21T05:35:46;3.73;;;3.17;;
10823;SDS011;39116;59.332;18.034;2023-11-21T05:38:08;4.13;;;3.20;;
10823;SDS011;39116;59.332;18.034;2023-11-21T05:40:30;4.07;;;3.07;;
10823;SDS011;39116;59.332;18.034;2023-11-21T05:42:53;3.70;;;3.30;;
10823;SDS011;39116;59.332;18.034;2023-11-21T05:45:16;4.57;;;3.27;;
10823;SDS011;39116;59.332;18.034;2023-11-21T05:47:39;5.47;;;3.40;;
10823;SDS011;39116;59.332;18.034;2023-11-21T05:50:01;5.07;;;3.57;;
10823;SDS011;39116;59.332;18.034;2023-11-21T05:52:23;3.83;;;3.50;;
10823;SDS011;39116;59.332;18.034;2023-11-21T05:54:44;5.83;;;3.53;;
10823;SDS011;39116;59.332;18.034;2023-11-21T05:57:06;3.90;;;3.50;;
10823;SDS011;39116;59.332;18.034;2023-11-21T05:59:29;4.50;;;3.63;;
10823;SDS011;39116;59.332;18.034;2023-11-21T06:01:50;4.07;;;3.07;;
10823;SDS011;39116;59.332;18.034;2023-11-21T06:04:12;3.20;;;2.90;;
10823;SDS011;39116;59.332;18.034;2023-11-21T06:06:34;3.40;;;3.03;;
10823;SDS011;39116;59.332;18.034;2023-11-21T06:08:56;3.37;;;3.00;;
10823;SDS011;39116;59.332;18.034;2023-11-21T06:11:18;3.50;;;3.20;;
10823;SDS011;39116;59.332;18.034;2023-11-21T06:13:39;3.13;;;2.83;;
10823;SDS011;39116;59.332;18.034;2023-11-21T06:16:03;3.10;;;2.80;;
10823;SDS011;39116;59.332;18.034;2023-11-21T06:18:25;3.77;;;2.80;;
10823;SDS011;39116;59.332;18.034;2023-11-21T06:20:47;3.33;;;3.03;;
10823;SDS011;39116;59.332;18.034;2023-11-21T06:23:08;3.80;;;3.03;;
10823;SDS011;39116;59.332;18.034;2023-11-21T06:25:30;5.33;;;3.57;;
10823;SDS011;39116;59.332;18.034;2023-11-21T06:27:53;4.70;;;3.60;;
10823;SDS011;39116;59.332;18.034;2023-11-21T06:30:15;4.03;;;3.20;;
10823;SDS011;39116;59.332;18.034;2023-11-21T06:32:41;5.60;;;3.80;;
10823;SDS011;39116;59.332;18.034;2023-11-21T06:35:06;3.43;;;3.03;;
10823;SDS011;39116;59.332;18.034;2023-11-21T06:37:28;4.30;;;3.00;;
10823;SDS011;39116;59.332;18.034;2023-11-21T06:39:50;3.30;;;3.00;;
10823;SDS011;39116;59.332;18.034;2023-11-21T06:42:12;3.13;;;2.77;;
10823;SDS011;39116;59.332;18.034;2023-11-21T06:44:35;3.60;;;3.10;;
10823;SDS011;39116;59.332;18.034;2023-11-21T06:46:57;4.03;;;3.03;;
10823;SDS011;39116;59.332;18.034;2023-11-21T06:49:20;3.47;;;3.03;;
10823;SDS011;39116;59.332;18.034;2023-11-21T06:51:43;3.30;;;2.63;;
10823;SDS011;39116;59.332;18.034;2023-11-21T06:54:05;3.20;;;2.90;;
10823;SDS011;39116;59.332;18.034;2023-11-21T06:56:27;3.37;;;3.07;;
10823;SDS011;39116;59.332;18.034;2023-11-21T06:58:49;3.83;;;3.27;;
10823;SDS011;39116;59.332;18.034;2023-11-21T07:01:14;4.83;;;3.60;;
10823;SDS011;39116;59.332;18.034;2023-11-21T07:03:35;3.43;;;3.13;;
10823;SDS011;39116;59.332;18.034;2023-11-21T07:05:59;3.40;;;3.10;;
10823;SDS011;39116;59.332;18.034;2023-11-21T07:08:21;3.87;;;3.10;;
10823;SDS011;39116;59.332;18.034;2023-11-21T07:10:42;3.40;;;3.10;;
10823;SDS011;39116;59.332;18.034;2023-11-21T07:13:04;3.00;;;2.73;;
10823;SDS011;39116;59.332;18.034;2023-11-21T07:15:27;3.17;;;2.70;;
10823;SDS011;39116;59.332;18.034;2023-11-21T07:17:48;5.73;;;2.90;;
10823;SDS011;39116;59.332;18.034;2023-11-21T07:20:10;3.70;;;3.10;;
10823;SDS011;39116;59.332;18.034;2023-11-21T07:22:34;3.38;;;2.80;;
10823;SDS011;39116;59.332;18.034;2023-11-21T07:24:55;3.27;;;2.97;;
10823;SDS011;39116;59.332;18.034;2023-11-21T07:27:17;3.13;;;2.80;;
10823;SDS011;39116;59.332;18.034;2023-11-21T07:29:39;3.93;;;3.00;;
10823;SDS011;39116;59.332;18.034;2023-11-21T07:32:01;3.60;;;3.10;;
10823;SDS011;39116;59.332;18.034;2023-11-21T07:34:23;3.63;;;3.00;;
10823;SDS011;39116;59.332;18.034;2023-11-21T07:36:44;3.30;;;3.00;;
10823;SDS011;39116;59.332;18.034;2023-11-21T07:39:07;3.33;;;2.97;;
10823;SDS011;39116;59.332;18.034;2023-11-21T07:41:31;3.37;;;2.77;;
10823;SDS011;39116;59.332;18.034;2023-11-21T07:43:53;3.05;;;2.75;;
10823;SDS011;39116;59.332;18.034;2023-11-21T07:46:16;3.23;;;2.93;;
10823;SDS011;39116;59.332;18.034;2023-11-21T07:48:38;3.50;;;2.87;;
10823;SDS011;39116;59.332;18.034;2023-11-21T07:51:00;4.80;;;3.30;;
10823;SDS011;39116;59.332;18.034;2023-11-21T07:53:23;4.53;;;3.40;;
10823;SDS011;39116;59.332;18.034;2023-11-21T07:55:46;5.80;;;3.33;;
10823;SDS011;39116;59.332;18.034;2023-11-21T07:58:08;3.97;;;3.20;;
10823;SDS011;39116;59.332;18.034;2023-11-21T08:00:30;3.50;;;3.10;;
10823;SDS011;39116;59.332;18.034;2023-11-21T08:02:51;5.50;;;3.67;;
10823;SDS011;39116;59.332;18.034;2023-11-21T08:05:13;3.10;;;2.80;;
10823;SDS011;39116;59.332;18.034;2023-11-21T08:07:35;3.17;;;2.70;;
10823;SDS011;39116;59.332;18.034;2023-11-21T08:09:57;4.75;;;2.90;;
10823;SDS011;39116;59.332;18.034;2023-11-21T08:12:20;4.33;;;3.40;;
10823;SDS011;39116;59.332;18.034;2023-11-21T08:14:41;3.37;;;3.00;;
10823;SDS011;39116;59.332;18.034;2023-11-21T08:17:03;3.30;;;2.97;;
10823;SDS011;39116;59.332;18.034;2023-11-21T08:19:24;3.13;;;2.70;;
10823;SDS011;39116;59.332;18.034;2023-11-21T08:21:46;3.00;;;2.70;;
10823;SDS011;39116;59.332;18.034;2023-11-21T08:24:08;6.22;;;3.38;;
10823;SDS011;39116;59.332;18.034;2023-11-21T08:26:31;2.97;;;2.65;;
10823;SDS011;39116;59.332;18.034;2023-11-21T08:28:54;3.67;;;2.60;;
10823;SDS011;39116;59.332;18.034;2023-11-21T08:31:16;3.47;;;2.60;;
10823;SDS011;39116;59.332;18.034;2023-11-21T08:33:38;3.57;;;2.57;;
10823;SDS011;39116;59.332;18.034;2023-11-21T08:36:01;3.03;;;2.73;;
10823;SDS011;39116;59.332;18.034;2023-11-21T08:38:28;3.77;;;2.73;;
10823;SDS011;39116;59.332;18.034;2023-11-21T08:40:49;5.73;;;3.13;;
10823;SDS011;39116;59.332;18.034;2023-11-21T08:43:11;4.87;;;2.80;;
10823;SDS011;39116;59.332;18.034;2023-11-21T08:45:36;3.95;;;3.33;;
10823;SDS011;39116;59.332;18.034;2023-11-21T08:47:57;6.23;;;3.43;;
10823;SDS011;39116;59.332;18.034;2023-11-21T08:50:19;4.20;;;3.00;;
10823;SDS011;39116;59.332;18.034;2023-11-21T08:52:41;4.63;;;3.40;;
10823;SDS011;39116;59.332;18.034;2023-11-21T08:55:04;3.97;;;3.30;;
10823;SDS011;39116;59.332;18.034;2023-11-21T08:57:27;3.63;;;3.00;;
10823;SDS011;39116;59.332;18.034;2023-11-21T08:59:50;5.67;;;3.03;;
10823;SDS011;39116;59.332;18.034;2023-11-21T09:02:17;4.57;;;3.33;;
10823;SDS011;39116;59.332;18.034;2023-11-21T09:04:38;4.03;;;2.73;;
10823;SDS011;39116;59.332;18.034;2023-11-21T09:07:00;2.73;;;2.53;;
10823;SDS011;39116;59.332;18.034;2023-11-21T09:09:21;3.17;;;2.40;;
10823;SDS011;39116;59.332;18.034;2023-11-21T09:11:44;2.30;;;2.10;;
10823;SDS011;39116;59.332;18.034;2023-11-21T09:14:06;2.90;;;2.30;;
10823;SDS011;39116;59.332;18.034;2023-11-21T09:16:28;4.37;;;2.60;;
10823;SDS011;39116;59.332;18.034;2023-11-21T09:18:52;3.10;;;2.10;;
10823;SDS011;39116;59.332;18.034;2023-11-21T09:21:13;2.40;;;2.13;;
10823;SDS011;39116;59.332;18.034;2023-11-21T09:23:35;2.70;;;1.90;;
10823;SDS011;39116;59.332;18.034;2023-11-21T09:25:57;2.23;;;2.03;;
10823;SDS011;39116;59.332;18.034;2023-11-21T09:28:20;3.15;;;2.05;;
10823;SDS011;39116;59.332;18.034;2023-11-21T09:30:42;2.60;;;2.30;;
10823;SDS011;39116;59.332;18.034;2023-11-21T09:33:04;2.93;;;2.43;;
10823;SDS011;39116;59.332;18.034;2023-11-21T09:35:29;2.72;;;2.45;;
10823;SDS011;39116;59.332;18.034;2023-11-21T09:37:51;4.43;;;2.37;;
10823;SDS011;39116;59.332;18.034;2023-11-21T09:40:13;3.90;;;2.50;;
10823;SDS011;39116;59.332;18.034;2023-11-21T09:42:38;3.00;;;2.20;;
10823;SDS011;39116;59.332;18.034;2023-11-21T09:45:03;3.38;;;2.50;;
10823;SDS011;39116;59.332;18.034;2023-11-21T09:47:27;2.83;;;2.55;;
10823;SDS011;39116;59.332;18.034;2023-11-21T09:49:49;2.90;;;2.50;;
10823;SDS011;39116;59.332;18.034;2023-11-21T09:52:12;3.63;;;2.50;;
10823;SDS011;39116;59.332;18.034;2023-11-21T09:54:38;5.05;;;2.97;;
10823;SDS011;39116;59.332;18.034;2023-11-21T09:57:00;5.18;;;2.90;;
10823;SDS011;39116;59.332;18.034;2023-11-21T09:59:23;3.80;;;3.13;;
10823;SDS011;39116;59.332;18.034;2023-11-21T10:01:45;4.07;;;3.30;;
10823;SDS011;39116;59.332;18.034;2023-11-21T10:04:07;3.90;;;2.90;;
10823;SDS011;39116;59.332;18.034;2023-11-21T10:06:31;4.68;;;3.10;;
10823;SDS011;39116;59.332;18.034;2023-11-21T10:08:55;3.03;;;2.50;;
10823;SDS011;39116;59.332;18.034;2023-11-21T10:11:18;3.22;;;2.65;;
10823;SDS011;39116;59.332;18.034;2023-11-21T10:13:42;3.42;;;2.55;;
10823;SDS011;39116;59.332;18.034;2023-11-21T10:16:06;8.10;;;2.92;;
10823;SDS011;39116;59.332;18.034;2023-11-21T10:18:28;3.65;;;2.72;;
10823;SDS011;39116;59.332;18.034;2023-11-21T10:20:50;3.17;;;2.83;;
10823;SDS011;39116;59.332;18.034;2023-11-21T10:23:13;4.97;;;2.93;;
10823;SDS011;39116;59.332;18.034;2023-11-21T10:25:36;4.03;;;2.78;;
10823;SDS011;39116;59.332;18.034;2023-11-21T10:27:58;4.00;;;2.55;;
10823;SDS011;39116;59.332;18.034;2023-11-21T10:30:22;3.10;;;2.70;;
10823;SDS011;39116;59.332;18.034;2023-11-21T10:32:43;4.75;;;2.92;;
10823;SDS011;39116;59.332;18.034;2023-11-21T10:35:05;4.35;;;2.97;;
10823;SDS011;39116;59.332;18.034;2023-11-21T10:37:30;4.60;;;2.90;;
10823;SDS011;39116;59.332;18.034;2023-11-21T10:39:55;3.97;;;3.17;;
10823;SDS011;39116;59.332;18.034;2023-11-21T10:42:19;3.47;;;3.00;;
10823;SDS011;39116;59.332;18.034;2023-11-21T10:44:45;6.33;;;3.50;;
10823;SDS011;39116;59.332;18.034;2023-11-21T10:47:08;5.03;;;3.30;;
10823;SDS011;39116;59.332;18.034;2023-11-21T10:49:32;6.13;;;2.90;;
10823;SDS011;39116;59.332;18.034;2023-11-21T10:51:53;3.73;;;3.07;;
10823;SDS011;39116;59.332;18.034;2023-11-21T10:54:17;4.00;;;3.30;;
10823;SDS011;39116;59.332;18.034;2023-11-21T10:56:39;6.55;;;3.75;;
10823;SDS011;39116;59.332;18.034;2023-11-21T10:59:04;3.63;;;3.03;;
10823;SDS011;39116;59.332;18.034;2023-11-21T11:01:26;4.97;;;3.53;;
10823;SDS011;39116;59.332;18.034;2023-11-21T11:03:50;5.65;;;3.15;;
10823;SDS011;39116;59.332;18.034;2023-11-21T11:06:14;5.53;;;3.85;;
10823;SDS011;39116;59.332;18.034;2023-11-21T11:08:36;3.78;;;3.40;;
10823;SDS011;39116;59.332;18.034;2023-11-21T11:10:58;4.50;;;3.43;;
10823;SDS011;39116;59.332;18.034;2023-11-21T11:13:20;5.32;;;3.50;;
10823;SDS011;39116;59.332;18.034;2023-11-21T11:15:43;5.72;;;3.45;;
10823;SDS011;39116;59.332;18.034;2023-11-21T11:18:08;5.00;;;3.60;;
10823;SDS011;39116;59.332;18.034;2023-11-21T11:20:30;4.83;;;3.80;;
10823;SDS011;39116;59.332;18.034;2023-11-21T11:22:59;6.80;;;3.42;;
10823;SDS011;39116;59.332;18.034;2023-11-21T11:25:29;5.90;;;3.10;;
10823;SDS011;39116;59.332;18.034;2023-11-21T11:27:54;5.85;;;3.80;;
10823;SDS011;39116;59.332;18.034;2023-11-21T11:30:18;4.28;;;3.03;;
10823;SDS011;39116;59.332;18.034;2023-11-21T11:32:47;5.82;;;2.90;;
10823;SDS011;39116;59.332;18.034;2023-11-21T11:35:13;3.17;;;2.75;;
10823;SDS011;39116;59.332;18.034;2023-11-21T11:37:39;6.15;;;3.50;;
10823;SDS011;39116;59.332;18.034;2023-11-21T11:40:00;3.65;;;2.72;;
10823;SDS011;39116;59.332;18.034;2023-11-21T11:42:23;3.70;;;2.28;;
10823;SDS011;39116;59.332;18.034;2023-11-21T11:44:51;3.87;;;2.87;;
10823;SDS011;39116;59.332;18.034;2023-11-21T11:47:14;2.85;;;2.47;;
10823;SDS011;39116;59.332;18.034;2023-11-21T11:49:38;2.85;;;2.30;;
10823;SDS011;39116;59.332;18.034;2023-11-21T11:54:36;3.20;;;2.65;;
10823;SDS011;39116;59.332;18.034;2023-11-21T11:56:58;3.95;;;2.97;;
10823;SDS011;39116;59.332;18.034;2023-11-21T11:59:20;3.92;;;3.05;;
10823;SDS011;39116;59.332;18.034;2023-11-21T12:01:45;4.03;;;2.90;;
10823;SDS011;39116;59.332;18.034;2023-11-21T12:04:26;3.92;;;2.95;;
10823;SDS011;39116;59.332;18.034;2023-11-21T12:06:55;3.15;;;2.67;;
10823;SDS011;39116;59.332;18.034;2023-11-21T12:09:19;3.15;;;2.80;;
10823;SDS011;39116;59.332;18.034;2023-11-21T12:11:41;3.17;;;2.80;;
10823;SDS011;39116;59.332;18.034;2023-11-21T12:14:03;2.58;;;2.20;;
10823;SDS011;39116;59.332;18.034;2023-11-21T12:16:26;2.75;;;2.00;;
10823;SDS011;39116;59.332;18.034;2023-11-21T12:18:49;3.17;;;1.90;;
10823;SDS011;39116;59.332;18.034;2023-11-21T12:21:11;2.38;;;2.00;;
10823;SDS011;39116;59.332;18.034;2023-11-21T12:23:36;2.55;;;2.08;;
10823;SDS011;39116;59.332;18.034;2023-11-21T12:25:58;2.65;;;2.22;;
10823;SDS011;39116;59.332;18.034;2023-11-21T12:28:19;2.08;;;1.92;;
10823;SDS011;39116;59.332;18.034;2023-11-21T12:30:43;2.50;;;2.08;;
10823;SDS011;39116;59.332;18.034;2023-11-21T12:33:05;2.30;;;2.03;;
10823;SDS011;39116;59.332;18.034;2023-11-21T12:35:28;2.40;;;1.70;;
10823;SDS011;39116;59.332;18.034;2023-11-21T12:37:51;3.35;;;1.70;;
10823;SDS011;39116;59.332;18.034;2023-11-21T12:40:15;2.83;;;1.70;;
10823;SDS011;39116;59.332;18.034;2023-11-21T12:42:37;2.63;;;1.90;;
10823;SDS011;39116;59.332;18.034;2023-11-21T12:45:07;3.60;;;1.85;;
10823;SDS011;39116;59.332;18.034;2023-11-21T12:47:29;3.95;;;2.00;;
10823;SDS011;39116;59.332;18.034;2023-11-21T12:49:51;2.22;;;1.85;;
10823;SDS011;39116;59.332;18.034;2023-11-21T12:52:13;2.97;;;2.00;;
10823;SDS011;39116;59.332;18.034;2023-11-21T12:54:34;2.17;;;1.63;;
10823;SDS011;39116;59.332;18.034;2023-11-21T12:57:00;1.97;;;1.87;;
10823;SDS011;39116;59.332;18.034;2023-11-21T12:59:24;2.83;;;1.83;;
10823;SDS011;39116;59.332;18.034;2023-11-21T13:01:46;2.67;;;1.93;;
10823;SDS011;39116;59.332;18.034;2023-11-21T13:04:11;3.90;;;2.13;;
10823;SDS011;39116;59.332;18.034;2023-11-21T13:06:33;2.73;;;1.93;;
10823;SDS011;39116;59.332;18.034;2023-11-21T13:09:01;2.67;;;2.30;;
10823;SDS011;39116;59.332;18.034;2023-11-21T13:11:25;2.37;;;1.70;;
10823;SDS011;39116;59.332;18.034;2023-11-21T13:13:50;2.10;;;1.90;;
10823;SDS011;39116;59.332;18.034;2023-11-21T13:16:13;3.30;;;2.20;;
10823;SDS011;39116;59.332;18.034;2023-11-21T13:18:35;2.30;;;1.87;;
10823;SDS011;39116;59.332;18.034;2023-11-21T13:20:58;2.57;;;2.00;;
10823;SDS011;39116;59.332;18.034;2023-11-21T13:23:20;5.23;;;1.83;;
10823;SDS011;39116;59.332;18.034;2023-11-21T13:25:43;2.27;;;1.90;;
10823;SDS011;39116;59.332;18.034;2023-11-21T13:28:05;3.43;;;1.90;;
10823;SDS011;39116;59.332;18.034;2023-11-21T13:30:28;2.27;;;1.87;;
10823;SDS011;39116;59.332;18.034;2023-11-21T13:32:53;2.13;;;1.73;;
10823;SDS011;39116;59.332;18.034;2023-11-21T13:35:17;2.08;;;1.88;;
10823;SDS011;39116;59.332;18.034;2023-11-21T13:37:43;1.37;;;1.27;;
10823;SDS011;39116;59.332;18.034;2023-11-21T13:40:09;3.23;;;1.40;;
10823;SDS011;39116;59.332;18.034;2023-11-21T13:42:34;2.40;;;1.50;;
10823;SDS011;39116;59.332;18.034;2023-11-21T13:44:56;2.57;;;1.60;;
10823;SDS011;39116;59.332;18.034;2023-11-21T13:47:19;2.27;;;1.60;;
10823;SDS011;39116;59.332;18.034;2023-11-21T13:49:43;2.00;;;1.47;;
10823;SDS011;39116;59.332;18.034;2023-11-21T13:52:05;2.37;;;1.67;;
10823;SDS011;39116;59.332;18.034;2023-11-21T13:54:27;2.40;;;1.57;;
10823;SDS011;39116;59.332;18.034;2023-11-21T13:56:49;2.13;;;1.60;;
10823;SDS011;39116;59.332;18.034;2023-11-21T13:59:11;3.10;;;1.80;;
10823;SDS011;39116;59.332;18.034;2023-11-21T14:01:41;2.33;;;1.70;;
10823;SDS011;39116;59.332;18.034;2023-11-21T14:04:19;2.50;;;1.90;;
10823;SDS011;39116;59.332;18.034;2023-11-21T14:06:54;2.83;;;1.83;;
10823;SDS011;39116;59.332;18.034;2023-11-21T14:09:16;3.87;;;1.80;;